Terminal Aerodrome Forecast
Issued by NWS North Platte, NE

Home | Current Version | Previous Version | Graphics & Text | Print | Product List | Glossary On
Versions: 1 2 3 4 5 6 7 8 9 10 11 12 13 14 15
000
FTUS43 KLBF 260520
TAFVTN
TAF
KVTN 260520Z 2606/2706 32005KT P6SM SCT100 BKN250
     FM260900 32007KT P6SM SCT250
     FM261500 34009KT P6SM FEW250
     FM262100 36007KT P6SM BKN250
     FM270000 03005KT P6SM BKN100 PROB30 2702/2706 P6SM -SHRA BKN060
      BKN100=

USA.gov is the U.S. government's official web portal to all federal, state and local government web resources and services.